sensor_id;sensor_type;location;lat;lon;timestamp;pressure;altitude;pressure_sealevel;temperature;humidity
14902;BME280;7542;49.078;9.194;2022-12-07T00:00:20;98760.97;;;9.32;58.60
14902;BME280;7542;49.078;9.194;2022-12-07T00:01:26;98765.22;;;9.33;58.38
14902;BME280;7542;49.078;9.194;2022-12-07T00:02:28;98763.56;;;9.32;58.31
14902;BME280;7542;49.078;9.194;2022-12-07T00:03:30;98767.81;;;9.33;58.66
14902;BME280;7542;49.078;9.194;2022-12-07T00:04:31;98763.56;;;9.32;58.57
14902;BME280;7542;49.078;9.194;2022-12-07T00:05:33;98759.31;;;9.31;58.52
14902;BME280;7542;49.078;9.194;2022-12-07T00:06:42;98763.56;;;9.32;58.70
14902;BME280;7542;49.078;9.194;2022-12-07T00:07:44;98770.59;;;9.32;58.63
14902;BME280;7542;49.078;9.194;2022-12-07T00:08:47;98760.31;;;9.30;58.58
14902;BME280;7542;49.078;9.194;2022-12-07T00:09:49;98762.09;;;9.29;58.66
14902;BME280;7542;49.078;9.194;2022-12-07T00:10:51;98763.91;;;9.29;58.37
14902;BME280;7542;49.078;9.194;2022-12-07T00:11:52;98760.47;;;9.28;58.57
14902;BME280;7542;49.078;9.194;2022-12-07T00:12:54;98766.69;;;9.27;58.75
14902;BME280;7542;49.078;9.194;2022-12-07T00:14:00;98763.91;;;9.29;58.63
14902;BME280;7542;49.078;9.194;2022-12-07T00:15:03;98762.25;;;9.28;58.86
14902;BME280;7542;49.078;9.194;2022-12-07T00:16:11;98757.03;;;9.28;58.76
14902;BME280;7542;49.078;9.194;2022-12-07T00:17:13;98762.25;;;9.28;58.81
14902;BME280;7542;49.078;9.194;2022-12-07T00:18:14;98757.03;;;9.28;58.58
14902;BME280;7542;49.078;9.194;2022-12-07T00:19:16;98758.84;;;9.27;58.99
14902;BME280;7542;49.078;9.194;2022-12-07T00:20:18;98751.81;;;9.28;58.65
14902;BME280;7542;49.078;9.194;2022-12-07T00:21:24;98753.44;;;9.29;58.67
14902;BME280;7542;49.078;9.194;2022-12-07T00:22:26;98751.97;;;9.26;58.63
14902;BME280;7542;49.078;9.194;2022-12-07T00:23:28;98753.75;;;9.26;58.94
14902;BME280;7542;49.078;9.194;2022-12-07T00:24:30;98749.34;;;9.26;58.56
14902;BME280;7542;49.078;9.194;2022-12-07T00:25:32;98752.13;;;9.25;58.88
14902;BME280;7542;49.078;9.194;2022-12-07T00:26:37;98747.53;;;9.27;58.81
14902;BME280;7542;49.078;9.194;2022-12-07T00:27:39;98746.06;;;9.24;58.81
14902;BME280;7542;49.078;9.194;2022-12-07T00:28:45;98744.13;;;9.26;58.78
14902;BME280;7542;49.078;9.194;2022-12-07T00:29:47;98748.69;;;9.24;58.97
14902;BME280;7542;49.078;9.194;2022-12-07T00:30:49;98746.88;;;9.25;59.03
14902;BME280;7542;49.078;9.194;2022-12-07T00:31:50;98746.88;;;9.25;59.40
14902;BME280;7542;49.078;9.194;2022-12-07T00:32:52;98752.13;;;9.25;58.81
14902;BME280;7542;49.078;9.194;2022-12-07T00:33:54;98749.50;;;9.25;58.88
14902;BME280;7542;49.078;9.194;2022-12-07T00:34:56;98751.31;;;9.24;58.62
14902;BME280;7542;49.078;9.194;2022-12-07T00:35:59;98752.13;;;9.25;58.83
14902;BME280;7542;49.078;9.194;2022-12-07T00:37:01;98750.47;;;9.24;58.88
14902;BME280;7542;49.078;9.194;2022-12-07T00:38:03;98747.72;;;9.25;58.95
14902;BME280;7542;49.078;9.194;2022-12-07T00:39:05;98745.91;;;9.26;58.56
14902;BME280;7542;49.078;9.194;2022-12-07T00:40:07;98744.13;;;9.26;58.91
14902;BME280;7542;49.078;9.194;2022-12-07T00:41:13;98749.34;;;9.26;59.07
14902;BME280;7542;49.078;9.194;2022-12-07T00:42:15;98748.53;;;9.26;58.90
14902;BME280;7542;49.078;9.194;2022-12-07T00:43:17;98748.69;;;9.24;58.99
14902;BME280;7542;49.078;9.194;2022-12-07T00:44:19;98744.28;;;9.25;59.09
14902;BME280;7542;49.078;9.194;2022-12-07T00:45:21;98743.44;;;9.24;58.83
14902;BME280;7542;49.078;9.194;2022-12-07T00:46:24;98739.84;;;9.25;59.31
14902;BME280;7542;49.078;9.194;2022-12-07T00:47:26;98748.53;;;9.26;59.10
14902;BME280;7542;49.078;9.194;2022-12-07T00:48:28;98740.84;;;9.24;58.88
14902;BME280;7542;49.078;9.194;2022-12-07T00:49:30;98740.69;;;9.26;58.83
14902;BME280;7542;49.078;9.194;2022-12-07T00:50:32;98744.28;;;9.25;59.08
14902;BME280;7542;49.078;9.194;2022-12-07T00:51:33;98740.69;;;9.26;59.07
14902;BME280;7542;49.078;9.194;2022-12-07T00:52:35;98739.03;;;9.25;59.06
14902;BME280;7542;49.078;9.194;2022-12-07T00:53:38;98742.47;;;9.25;58.85
14902;BME280;7542;49.078;9.194;2022-12-07T00:54:42;98747.72;;;9.25;59.32
14902;BME280;7542;49.078;9.194;2022-12-07T00:55:45;98735.59;;;9.24;59.02
14902;BME280;7542;49.078;9.194;2022-12-07T00:56:47;98741.81;;;9.23;58.94
14902;BME280;7542;49.078;9.194;2022-12-07T00:57:48;98745.91;;;9.26;58.90
14902;BME280;7542;49.078;9.194;2022-12-07T00:58:56;98744.28;;;9.25;59.11
14902;BME280;7542;49.078;9.194;2022-12-07T00:59:58;98744.28;;;9.25;59.06
14902;BME280;7542;49.078;9.194;2022-12-07T01:01:04;98746.88;;;9.25;58.89
14902;BME280;7542;49.078;9.194;2022-12-07T01:02:06;98745.25;;;9.24;58.81
14902;BME280;7542;49.078;9.194;2022-12-07T01:03:12;98748.69;;;9.24;59.09
14902;BME280;7542;49.078;9.194;2022-12-07T01:04:14;98746.06;;;9.24;58.84
14902;BME280;7542;49.078;9.194;2022-12-07T01:05:16;98740.03;;;9.24;59.09
14902;BME280;7542;49.078;9.194;2022-12-07T01:06:20;98743.44;;;9.24;59.01
14902;BME280;7542;49.078;9.194;2022-12-07T01:07:22;98751.31;;;9.24;58.96
14902;BME280;7542;49.078;9.194;2022-12-07T01:08:26;98740.16;;;9.22;59.29
14902;BME280;7542;49.078;9.194;2022-12-07T01:09:28;98740.84;;;9.24;59.29
14902;BME280;7542;49.078;9.194;2022-12-07T01:10:30;98740.03;;;9.24;59.16
14902;BME280;7542;49.078;9.194;2022-12-07T01:11:33;98746.22;;;9.23;58.99
14902;BME280;7542;49.078;9.194;2022-12-07T01:12:35;98747.06;;;9.23;59.22
14902;BME280;7542;49.078;9.194;2022-12-07T01:13:36;98747.06;;;9.23;59.08
14902;BME280;7542;49.078;9.194;2022-12-07T01:14:38;98742.78;;;9.22;59.08
14902;BME280;7542;49.078;9.194;2022-12-07T01:15:44;98749.50;;;9.25;59.19
14902;BME280;7542;49.078;9.194;2022-12-07T01:16:46;98742.63;;;9.24;58.84
14902;BME280;7542;49.078;9.194;2022-12-07T01:17:48;98738.22;;;9.24;59.23
14902;BME280;7542;49.078;9.194;2022-12-07T01:18:53;98741.66;;;9.25;59.33
14902;BME280;7542;49.078;9.194;2022-12-07T01:19:55;98737.41;;;9.24;59.07
14902;BME280;7542;49.078;9.194;2022-12-07T01:21:02;98739.19;;;9.23;59.20
14902;BME280;7542;49.078;9.194;2022-12-07T01:22:04;98741.81;;;9.23;59.12
14902;BME280;7542;49.078;9.194;2022-12-07T01:23:06;98744.44;;;9.23;59.13
14902;BME280;7542;49.078;9.194;2022-12-07T01:24:11;98739.19;;;9.23;59.13
14902;BME280;7542;49.078;9.194;2022-12-07T01:25:12;98741.00;;;9.23;59.13
14902;BME280;7542;49.078;9.194;2022-12-07T01:26:22;98745.25;;;9.24;59.10
14902;BME280;7542;49.078;9.194;2022-12-07T01:27:24;98741.13;;;9.21;59.20
14902;BME280;7542;49.078;9.194;2022-12-07T01:28:27;98742.78;;;9.22;59.19
14902;BME280;7542;49.078;9.194;2022-12-07T01:29:28;98749.66;;;9.23;59.19
14902;BME280;7542;49.078;9.194;2022-12-07T01:30:30;98746.38;;;9.21;59.13
14902;BME280;7542;49.078;9.194;2022-12-07T01:31:33;98746.22;;;9.23;58.99
14902;BME280;7542;49.078;9.194;2022-12-07T01:32:35;98746.22;;;9.23;59.12
14902;BME280;7542;49.078;9.194;2022-12-07T01:33:38;98748.00;;;9.22;59.04
14902;BME280;7542;49.078;9.194;2022-12-07T01:34:40;98745.38;;;9.22;59.02
14902;BME280;7542;49.078;9.194;2022-12-07T01:35:42;98748.00;;;9.22;59.20
14902;BME280;7542;49.078;9.194;2022-12-07T01:36:43;98744.56;;;9.22;59.19
14902;BME280;7542;49.078;9.194;2022-12-07T01:37:45;98742.63;;;9.24;59.18
14902;BME280;7542;49.078;9.194;2022-12-07T01:38:49;98747.06;;;9.23;59.04
14902;BME280;7542;49.078;9.194;2022-12-07T01:39:55;98747.88;;;9.24;59.13
14902;BME280;7542;49.078;9.194;2022-12-07T01:40:57;98747.88;;;9.24;59.17
14902;BME280;7542;49.078;9.194;2022-12-07T01:42:00;98748.69;;;9.24;58.73
14902;BME280;7542;49.078;9.194;2022-12-07T01:43:02;98745.25;;;9.24;59.24
14902;BME280;7542;49.078;9.194;2022-12-07T01:45:39;98750.47;;;9.24;58.91
14902;BME280;7542;49.078;9.194;2022-12-07T01:46:58;98758.19;;;9.25;59.05
14902;BME280;7542;49.078;9.194;2022-12-07T01:48:01;98750.47;;;9.24;59.18
14902;BME280;7542;49.078;9.194;2022-12-07T01:49:08;98750.31;;;9.25;59.13
14902;BME280;7542;49.078;9.194;2022-12-07T01:50:11;98752.41;;;9.22;59.04
14902;BME280;7542;49.078;9.194;2022-12-07T01:51:14;98755.72;;;9.24;59.03
14902;BME280;7542;49.078;9.194;2022-12-07T01:52:21;98747.88;;;9.24;59.26
14902;BME280;7542;49.078;9.194;2022-12-07T01:53:27;98748.69;;;9.24;59.06
14902;BME280;7542;49.078;9.194;2022-12-07T01:54:31;98747.72;;;9.25;58.92
14902;BME280;7542;49.078;9.194;2022-12-07T01:55:38;98737.25;;;9.25;59.14
14902;BME280;7542;49.078;9.194;2022-12-07T01:56:50;98744.28;;;9.25;59.16
14902;BME280;7542;49.078;9.194;2022-12-07T01:57:54;98744.44;;;9.23;59.00
14902;BME280;7542;49.078;9.194;2022-12-07T01:58:58;98745.38;;;9.22;59.20
14902;BME280;7542;49.078;9.194;2022-12-07T02:00:05;98739.19;;;9.23;59.37
14902;BME280;7542;49.078;9.194;2022-12-07T02:01:08;98745.25;;;9.24;59.34
14902;BME280;7542;49.078;9.194;2022-12-07T02:02:18;98742.63;;;9.24;59.04
14902;BME280;7542;49.078;9.194;2022-12-07T02:03:32;98751.16;;;9.26;59.31
14902;BME280;7542;49.078;9.194;2022-12-07T02:04:36;98751.47;;;9.23;59.34
14902;BME280;7542;49.078;9.194;2022-12-07T02:05:40;98747.06;;;9.23;59.27
14902;BME280;7542;49.078;9.194;2022-12-07T02:06:43;98748.84;;;9.23;59.29
14902;BME280;7542;49.078;9.194;2022-12-07T02:07:47;98749.66;;;9.23;59.34
14902;BME280;7542;49.078;9.194;2022-12-07T02:08:50;98747.19;;;9.22;59.20
14902;BME280;7542;49.078;9.194;2022-12-07T02:09:52;98744.56;;;9.22;59.42
14902;BME280;7542;49.078;9.194;2022-12-07T02:10:54;98752.28;;;9.23;59.36
14902;BME280;7542;49.078;9.194;2022-12-07T02:11:57;98747.19;;;9.22;59.38
14902;BME280;7542;49.078;9.194;2022-12-07T02:14:10;98749.78;;;9.22;59.32
14902;BME280;7542;49.078;9.194;2022-12-07T02:15:12;98746.22;;;9.23;59.22
14902;BME280;7542;49.078;9.194;2022-12-07T02:17:11;98742.78;;;9.22;59.35
14902;BME280;7542;49.078;9.194;2022-12-07T02:20:30;98736.38;;;9.17;59.48
14902;BME280;7542;49.078;9.194;2022-12-07T02:23:41;98737.53;;;9.14;59.24
14902;BME280;7542;49.078;9.194;2022-12-07T02:28:33;98733.72;;;9.09;59.58
14902;BME280;7542;49.078;9.194;2022-12-07T02:29:43;98733.72;;;9.09;59.73
14902;BME280;7542;49.078;9.194;2022-12-07T02:30:49;98730.28;;;9.08;59.35
14902;BME280;7542;49.078;9.194;2022-12-07T02:32:14;98729.47;;;9.08;59.15
14902;BME280;7542;49.078;9.194;2022-12-07T02:33:31;98728.66;;;9.07;59.62
14902;BME280;7542;49.078;9.194;2022-12-07T02:34:50;98723.59;;;9.06;59.37
14902;BME280;7542;49.078;9.194;2022-12-07T02:36:17;98724.56;;;9.05;59.19
14902;BME280;7542;49.078;9.194;2022-12-07T02:37:56;98728.16;;;9.04;59.36
14902;BME280;7542;49.078;9.194;2022-12-07T02:39:08;98722.28;;;9.02;59.67
14902;BME280;7542;49.078;9.194;2022-12-07T02:40:25;98715.38;;;9.00;59.85
14902;BME280;7542;49.078;9.194;2022-12-07T02:41:53;98717.16;;;9.00;59.54
14902;BME280;7542;49.078;9.194;2022-12-07T02:43:23;98710.31;;;8.99;59.94
14902;BME280;7542;49.078;9.194;2022-12-07T02:44:28;98708.81;;;8.96;59.52
14902;BME280;7542;49.078;9.194;2022-12-07T02:45:36;98699.19;;;8.97;59.79
14902;BME280;7542;49.078;9.194;2022-12-07T02:47:01;98700.97;;;8.96;59.87
14902;BME280;7542;49.078;9.194;2022-12-07T02:48:07;98699.34;;;8.95;59.46
14902;BME280;7542;49.078;9.194;2022-12-07T02:49:10;98690.84;;;8.93;59.56
14902;BME280;7542;49.078;9.194;2022-12-07T02:50:12;98700.47;;;8.93;59.78
14902;BME280;7542;49.078;9.194;2022-12-07T02:51:17;98707.03;;;8.97;59.52
14902;BME280;7542;49.078;9.194;2022-12-07T02:52:19;98708.00;;;8.96;59.61
14902;BME280;7542;49.078;9.194;2022-12-07T02:53:39;98713.25;;;8.96;59.87
14902;BME280;7542;49.078;9.194;2022-12-07T02:54:41;98720.25;;;8.95;59.62
14902;BME280;7542;49.078;9.194;2022-12-07T02:55:43;98721.91;;;8.96;59.76
14902;BME280;7542;49.078;9.194;2022-12-07T03:00:07;98724.69;;;8.95;59.81
14902;BME280;7542;49.078;9.194;2022-12-07T03:03:09;98721.25;;;8.94;59.78
14902;BME280;7542;49.078;9.194;2022-12-07T03:04:56;98723.03;;;8.94;60.29
14902;BME280;7542;49.078;9.194;2022-12-07T03:06:28;98725.81;;;8.92;59.69
14902;BME280;7542;49.078;9.194;2022-12-07T03:08:00;98717.00;;;8.93;59.98
14902;BME280;7542;49.078;9.194;2022-12-07T03:09:20;98723.03;;;8.94;59.76
14902;BME280;7542;49.078;9.194;2022-12-07T03:11:48;98719.28;;;8.96;59.90
14902;BME280;7542;49.078;9.194;2022-12-07T03:14:26;98714.06;;;8.96;59.57
14902;BME280;7542;49.078;9.194;2022-12-07T03:15:43;98719.13;;;8.98;59.76
14902;BME280;7542;49.078;9.194;2022-12-07T03:16:57;98707.84;;;8.97;59.58
14902;BME280;7542;49.078;9.194;2022-12-07T03:18:04;98707.03;;;8.97;59.87
14902;BME280;7542;49.078;9.194;2022-12-07T03:19:13;98707.69;;;8.99;60.10
14902;BME280;7542;49.078;9.194;2022-12-07T03:20:20;98700.97;;;8.96;59.85
14902;BME280;7542;49.078;9.194;2022-12-07T03:21:56;98696.41;;;8.98;60.00
14902;BME280;7542;49.078;9.194;2022-12-07T03:22:59;98686.94;;;8.97;60.02
14902;BME280;7542;49.078;9.194;2022-12-07T03:24:10;98685.94;;;8.98;60.05
14902;BME280;7542;49.078;9.194;2022-12-07T03:25:16;98683.34;;;8.98;60.28
14902;BME280;7542;49.078;9.194;2022-12-07T03:26:21;98682.34;;;8.99;60.11
14902;BME280;7542;49.078;9.194;2022-12-07T03:27:34;98684.97;;;8.99;59.98
14902;BME280;7542;49.078;9.194;2022-12-07T03:28:45;98686.59;;;9.00;59.92
14902;BME280;7542;49.078;9.194;2022-12-07T03:30:08;98678.75;;;9.00;59.79
14902;BME280;7542;49.078;9.194;2022-12-07T03:31:28;98681.38;;;9.00;59.92
14902;BME280;7542;49.078;9.194;2022-12-07T03:32:39;98674.50;;;8.99;59.92
14902;BME280;7542;49.078;9.194;2022-12-07T03:36:19;98667.66;;;8.98;59.69
14902;BME280;7542;49.078;9.194;2022-12-07T03:38:52;98673.84;;;8.97;59.72
14902;BME280;7542;49.078;9.194;2022-12-07T03:40:18;98670.41;;;8.97;59.70
14902;BME280;7542;49.078;9.194;2022-12-07T03:41:30;98670.41;;;8.97;59.99
14902;BME280;7542;49.078;9.194;2022-12-07T03:42:33;98674.19;;;8.94;59.82
14902;BME280;7542;49.078;9.194;2022-12-07T03:43:36;98673.19;;;8.95;59.68
14902;BME280;7542;49.078;9.194;2022-12-07T03:44:39;98671.56;;;8.94;59.73
14902;BME280;7542;49.078;9.194;2022-12-07T03:47:53;98676.78;;;8.94;59.91
14902;BME280;7542;49.078;9.194;2022-12-07T03:48:59;98678.75;;;8.92;59.82
14902;BME280;7542;49.078;9.194;2022-12-07T03:50:29;98681.19;;;8.94;59.87
14902;BME280;7542;49.078;9.194;2022-12-07T03:53:14;98685.09;;;8.90;60.21
14902;BME280;7542;49.078;9.194;2022-12-07T03:54:28;98682.63;;;8.88;59.91
14902;BME280;7542;49.078;9.194;2022-12-07T03:55:36;98681.81;;;8.88;59.76
14902;BME280;7542;49.078;9.194;2022-12-07T03:56:42;98682.63;;;8.88;59.77
14902;BME280;7542;49.078;9.194;2022-12-07T03:57:48;98687.03;;;8.88;59.83
14902;BME280;7542;49.078;9.194;2022-12-07T03:58:52;98686.06;;;8.89;59.95
14902;BME280;7542;49.078;9.194;2022-12-07T03:59:56;98678.38;;;8.87;60.05
14902;BME280;7542;49.078;9.194;2022-12-07T04:00:59;98680.19;;;8.87;60.10
14902;BME280;7542;49.078;9.194;2022-12-07T04:02:06;98678.38;;;8.87;59.90
14902;BME280;7542;49.078;9.194;2022-12-07T04:03:09;98680.84;;;8.89;59.93
14902;BME280;7542;49.078;9.194;2022-12-07T04:04:12;98679.84;;;8.90;59.92
14902;BME280;7542;49.078;9.194;2022-12-07T04:05:14;98684.97;;;8.91;60.04
14902;BME280;7542;49.078;9.194;2022-12-07T04:06:16;98684.97;;;8.91;59.97
14902;BME280;7542;49.078;9.194;2022-12-07T04:07:19;98681.38;;;8.92;60.03
14902;BME280;7542;49.078;9.194;2022-12-07T04:08:21;98685.63;;;8.93;59.76
14902;BME280;7542;49.078;9.194;2022-12-07T04:09:23;98690.84;;;8.93;59.73
14902;BME280;7542;49.078;9.194;2022-12-07T04:10:25;98704.25;;;8.90;59.87
14902;BME280;7542;49.078;9.194;2022-12-07T04:11:28;98705.88;;;8.91;60.01
14902;BME280;7542;49.078;9.194;2022-12-07T04:12:30;98705.72;;;8.93;60.11
14902;BME280;7542;49.078;9.194;2022-12-07T04:13:32;98707.50;;;8.92;60.01
14902;BME280;7542;49.078;9.194;2022-12-07T04:14:54;98694.44;;;8.92;59.77
14902;BME280;7542;49.078;9.194;2022-12-07T04:15:56;98698.69;;;8.93;60.00
14902;BME280;7542;49.078;9.194;2022-12-07T04:16:59;98693.47;;;8.93;59.84
14902;BME280;7542;49.078;9.194;2022-12-07T04:18:01;98695.25;;;8.93;60.07
14902;BME280;7542;49.078;9.194;2022-12-07T04:19:03;98698.69;;;8.93;60.05
14902;BME280;7542;49.078;9.194;2022-12-07T04:20:07;98697.06;;;8.92;60.07
14902;BME280;7542;49.078;9.194;2022-12-07T04:21:09;98692.81;;;8.91;60.16
14902;BME280;7542;49.078;9.194;2022-12-07T04:22:11;98696.41;;;8.90;60.18
14902;BME280;7542;49.078;9.194;2022-12-07T04:23:13;98690.31;;;8.90;59.89
14902;BME280;7542;49.078;9.194;2022-12-07T04:24:16;98688.69;;;8.89;60.01
14902;BME280;7542;49.078;9.194;2022-12-07T04:25:18;98683.59;;;8.87;60.12
14902;BME280;7542;49.078;9.194;2022-12-07T04:26:20;98687.22;;;8.86;59.99
14902;BME280;7542;49.078;9.194;2022-12-07T04:27:22;98686.38;;;8.86;60.22
14902;BME280;7542;49.078;9.194;2022-12-07T04:28:24;98694.38;;;8.84;59.81
14902;BME280;7542;49.078;9.194;2022-12-07T04:29:27;98688.19;;;8.85;60.02
14902;BME280;7542;49.078;9.194;2022-12-07T04:30:29;98693.41;;;8.85;60.14
14902;BME280;7542;49.078;9.194;2022-12-07T04:31:31;98694.22;;;8.86;60.31
14902;BME280;7542;49.078;9.194;2022-12-07T04:32:34;98691.78;;;8.84;60.14
14902;BME280;7542;49.078;9.194;2022-12-07T04:33:36;98691.78;;;8.84;60.25
14902;BME280;7542;49.078;9.194;2022-12-07T04:34:38;98690.13;;;8.83;60.19
14902;BME280;7542;49.078;9.194;2022-12-07T04:35:43;98687.53;;;8.83;60.06
14902;BME280;7542;49.078;9.194;2022-12-07T04:36:45;98696.19;;;8.84;60.02
14902;BME280;7542;49.078;9.194;2022-12-07T04:37:48;98691.13;;;8.82;60.22
14902;BME280;7542;49.078;9.194;2022-12-07T04:38:52;98686.06;;;8.81;60.00
14902;BME280;7542;49.078;9.194;2022-12-07T04:39:54;98686.88;;;8.81;60.16
14902;BME280;7542;49.078;9.194;2022-12-07T04:40:56;98694.88;;;8.80;60.18
14902;BME280;7542;49.078;9.194;2022-12-07T04:41:59;98693.06;;;8.80;60.09
14902;BME280;7542;49.078;9.194;2022-12-07T04:43:02;98680.97;;;8.79;60.14
14902;BME280;7542;49.078;9.194;2022-12-07T04:44:04;98685.34;;;8.79;60.33
14902;BME280;7542;49.078;9.194;2022-12-07T04:45:09;98685.34;;;8.79;60.12
14902;BME280;7542;49.078;9.194;2022-12-07T04:46:11;98679.31;;;8.78;60.31
14902;BME280;7542;49.078;9.194;2022-12-07T04:47:14;98675.88;;;8.78;60.19
14902;BME280;7542;49.078;9.194;2022-12-07T04:48:16;98676.03;;;8.76;59.92
14902;BME280;7542;49.078;9.194;2022-12-07T04:49:19;98682.25;;;8.75;59.99
14902;BME280;7542;49.078;9.194;2022-12-07T04:50:21;98676.84;;;8.77;60.11
14902;BME280;7542;49.078;9.194;2022-12-07T04:51:26;98683.06;;;8.76;59.88
14902;BME280;7542;49.078;9.194;2022-12-07T04:52:28;98683.06;;;8.76;59.93
14902;BME280;7542;49.078;9.194;2022-12-07T04:53:30;98673.75;;;8.73;60.38
14902;BME280;7542;49.078;9.194;2022-12-07T04:54:32;98673.91;;;8.71;59.90
14902;BME280;7542;49.078;9.194;2022-12-07T04:55:35;98674.56;;;8.74;60.08
14902;BME280;7542;49.078;9.194;2022-12-07T04:56:37;98675.38;;;8.74;60.21
14902;BME280;7542;49.078;9.194;2022-12-07T04:57:40;98681.59;;;8.73;60.13
14902;BME280;7542;49.078;9.194;2022-12-07T04:58:43;98677.34;;;8.72;59.89
14902;BME280;7542;49.078;9.194;2022-12-07T04:59:46;98680.94;;;8.71;59.98
14902;BME280;7542;49.078;9.194;2022-12-07T05:00:48;98679.13;;;8.71;59.98
14902;BME280;7542;49.078;9.194;2022-12-07T05:01:50;98680.78;;;8.73;60.30
14902;BME280;7542;49.078;9.194;2022-12-07T05:02:52;98678.16;;;8.73;59.88
14902;BME280;7542;49.078;9.194;2022-12-07T05:03:54;98682.41;;;8.74;59.82
14902;BME280;7542;49.078;9.194;2022-12-07T05:04:57;98682.25;;;8.75;60.01
14902;BME280;7542;49.078;9.194;2022-12-07T05:05:59;98683.88;;;8.76;59.99
14902;BME280;7542;49.078;9.194;2022-12-07T05:07:01;98678.66;;;8.76;59.95
14902;BME280;7542;49.078;9.194;2022-12-07T05:08:03;98682.75;;;8.79;59.84
14902;BME280;7542;49.078;9.194;2022-12-07T05:09:06;98675.88;;;8.78;59.89
14902;BME280;7542;49.078;9.194;2022-12-07T05:10:08;98685.22;;;8.80;59.91
14902;BME280;7542;49.078;9.194;2022-12-07T05:11:11;98686.88;;;8.81;59.73
14902;BME280;7542;49.078;9.194;2022-12-07T05:12:33;98682.63;;;8.80;59.58
14902;BME280;7542;49.078;9.194;2022-12-07T05:13:36;98689.47;;;8.81;59.66
14902;BME280;7542;49.078;9.194;2022-12-07T05:14:38;98691.13;;;8.82;59.72
14902;BME280;7542;49.078;9.194;2022-12-07T05:15:40;98686.06;;;8.81;59.77
14902;BME280;7542;49.078;9.194;2022-12-07T05:16:47;98686.53;;;8.84;59.52
14902;BME280;7542;49.078;9.194;2022-12-07T05:17:49;98687.53;;;8.83;59.52
14902;BME280;7542;49.078;9.194;2022-12-07T05:18:54;98684.09;;;8.83;59.74
14902;BME280;7542;49.078;9.194;2022-12-07T05:19:56;98686.53;;;8.84;59.49
14902;BME280;7542;49.078;9.194;2022-12-07T05:20:58;98688.34;;;8.84;59.54
14902;BME280;7542;49.078;9.194;2022-12-07T05:22:00;98690.97;;;8.84;59.80
14902;BME280;7542;49.078;9.194;2022-12-07T05:23:03;98683.13;;;8.84;59.55
14902;BME280;7542;49.078;9.194;2022-12-07T05:24:06;98684.75;;;8.85;59.52
14902;BME280;7542;49.078;9.194;2022-12-07T05:25:08;98683.78;;;8.86;59.72
14902;BME280;7542;49.078;9.194;2022-12-07T05:26:11;98677.72;;;8.85;59.60
14902;BME280;7542;49.078;9.194;2022-12-07T05:27:13;98676.09;;;8.84;59.67
14902;BME280;7542;49.078;9.194;2022-12-07T05:28:15;98685.56;;;8.85;59.60
14902;BME280;7542;49.078;9.194;2022-12-07T05:29:17;98678.69;;;8.84;59.38
14902;BME280;7542;49.078;9.194;2022-12-07T05:30:20;98681.31;;;8.84;59.74
14902;BME280;7542;49.078;9.194;2022-12-07T05:31:23;98678.53;;;8.86;59.38
14902;BME280;7542;49.078;9.194;2022-12-07T05:32:25;98681.00;;;8.87;59.74
14902;BME280;7542;49.078;9.194;2022-12-07T05:33:28;98678.38;;;8.87;59.72
14902;BME280;7542;49.078;9.194;2022-12-07T05:34:30;98678.22;;;8.89;59.54
14902;BME280;7542;49.078;9.194;2022-12-07T05:35:32;98671.53;;;8.86;59.60
14902;BME280;7542;49.078;9.194;2022-12-07T05:36:35;98672.19;;;8.88;59.46
14902;BME280;7542;49.078;9.194;2022-12-07T05:37:37;98674.78;;;8.88;59.44
14902;BME280;7542;49.078;9.194;2022-12-07T05:38:39;98672.88;;;8.90;59.58
14902;BME280;7542;49.078;9.194;2022-12-07T05:39:41;98677.13;;;8.91;59.50
14902;BME280;7542;49.078;9.194;2022-12-07T05:40:44;98679.72;;;8.91;59.41
14902;BME280;7542;49.078;9.194;2022-12-07T05:41:46;98672.88;;;8.90;59.39
14902;BME280;7542;49.078;9.194;2022-12-07T05:43:07;98675.47;;;8.90;59.42
14902;BME280;7542;49.078;9.194;2022-12-07T05:44:10;98666.78;;;8.90;59.33
14902;BME280;7542;49.078;9.194;2022-12-07T05:45:12;98671.19;;;8.89;59.21
14902;BME280;7542;49.078;9.194;2022-12-07T05:46:14;98673.69;;;8.91;59.42
14902;BME280;7542;49.078;9.194;2022-12-07T05:47:16;98667.63;;;8.90;59.32
14902;BME280;7542;49.078;9.194;2022-12-07T05:48:18;98665.84;;;8.91;59.39
14902;BME280;7542;49.078;9.194;2022-12-07T05:49:21;98659.78;;;8.90;59.20
14902;BME280;7542;49.078;9.194;2022-12-07T05:50:23;98650.97;;;8.91;59.19
14902;BME280;7542;49.078;9.194;2022-12-07T05:51:25;98650.97;;;8.91;59.17
14902;BME280;7542;49.078;9.194;2022-12-07T05:52:27;98660.44;;;8.92;59.26
14902;BME280;7542;49.078;9.194;2022-12-07T05:53:30;98661.44;;;8.91;59.09
14902;BME280;7542;49.078;9.194;2022-12-07T05:54:32;98666.34;;;8.94;59.14
14902;BME280;7542;49.078;9.194;2022-12-07T05:55:34;98664.69;;;8.93;59.12
14902;BME280;7542;49.078;9.194;2022-12-07T05:56:37;98667.47;;;8.92;59.21
14902;BME280;7542;49.078;9.194;2022-12-07T05:57:39;98677.78;;;8.93;59.28
14902;BME280;7542;49.078;9.194;2022-12-07T05:58:41;98663.06;;;8.92;59.17
14902;BME280;7542;49.078;9.194;2022-12-07T06:00:03;98670.09;;;8.92;59.06
14902;BME280;7542;49.078;9.194;2022-12-07T06:01:06;98671.88;;;8.91;59.15
14902;BME280;7542;49.078;9.194;2022-12-07T06:02:11;98673.69;;;8.91;59.13
14902;BME280;7542;49.078;9.194;2022-12-07T06:03:14;98675.47;;;8.90;58.84
14902;BME280;7542;49.078;9.194;2022-12-07T06:04:16;98679.72;;;8.91;59.37
14902;BME280;7542;49.078;9.194;2022-12-07T06:05:19;98682.34;;;8.91;58.96
14902;BME280;7542;49.078;9.194;2022-12-07T06:06:21;98678.09;;;8.90;59.12
14902;BME280;7542;49.078;9.194;2022-12-07T06:07:23;98675.59;;;8.89;59.22
14902;BME280;7542;49.078;9.194;2022-12-07T06:08:25;98679.84;;;8.90;59.04
14902;BME280;7542;49.078;9.194;2022-12-07T06:09:29;98677.25;;;8.90;59.10
14902;BME280;7542;49.078;9.194;2022-12-07T06:10:31;98680.03;;;8.88;58.95
14902;BME280;7542;49.078;9.194;2022-12-07T06:11:33;98679.19;;;8.88;58.98
14902;BME280;7542;49.078;9.194;2022-12-07T06:12:54;98674.78;;;8.88;59.00
14902;BME280;7542;49.078;9.194;2022-12-07T06:13:56;98676.59;;;8.88;58.67
14902;BME280;7542;49.078;9.194;2022-12-07T06:14:59;98673.97;;;8.88;58.70
14902;BME280;7542;49.078;9.194;2022-12-07T06:16:01;98675.78;;;8.87;59.00
14902;BME280;7542;49.078;9.194;2022-12-07T06:17:03;98678.22;;;8.89;58.95
14902;BME280;7542;49.078;9.194;2022-12-07T06:18:05;98676.59;;;8.88;58.74
14902;BME280;7542;49.078;9.194;2022-12-07T06:19:07;98681.66;;;8.89;58.52
14902;BME280;7542;49.078;9.194;2022-12-07T06:20:10;98683.44;;;8.89;58.66
14902;BME280;7542;49.078;9.194;2022-12-07T06:21:12;98686.06;;;8.89;58.63
14902;BME280;7542;49.078;9.194;2022-12-07T06:22:14;98685.94;;;8.90;58.69